createdAt,value
2023-08-12T00:01:06.037Z,100.00
2023-08-12T00:03:32.799Z,100.00
2023-08-12T00:08:16.611Z,100.00
2023-08-12T00:10:44.985Z,100.00
2023-08-12T00:13:14.771Z,100.00
2023-08-12T00:15:42.331Z,100.00
2023-08-12T00:18:10.353Z,100.00
2023-08-12T00:20:39.219Z,100.00
2023-08-12T00:23:06.995Z,100.00
2023-08-12T00:25:34.466Z,100.00
2023-08-12T00:28:01.942Z,100.00
2023-08-12T00:30:29.706Z,100.00
2023-08-12T00:32:57.347Z,100.00
2023-08-12T00:35:24.884Z,100.00
2023-08-12T00:37:52.398Z,100.00
2023-08-12T00:40:19.875Z,100.00
2023-08-12T00:42:48.172Z,100.00
2023-08-12T00:45:15.894Z,100.00
2023-08-12T00:47:43.477Z,100.00
2023-08-12T00:50:11.185Z,100.00
2023-08-12T00:52:38.768Z,100.00
2023-08-12T00:55:06.551Z,100.00
2023-08-12T00:57:34.363Z,100.00
2023-08-12T01:00:02.568Z,100.00
2023-08-12T01:02:30.318Z,100.00
2023-08-12T01:04:57.874Z,100.00
2023-08-12T01:07:25.424Z,100.00
2023-08-12T01:09:53.003Z,100.00
2023-08-12T01:12:38.055Z,100.00
2023-08-12T01:15:09.855Z,100.00
2023-08-12T01:17:38.843Z,100.00
2023-08-12T01:20:10.799Z,100.00
2023-08-12T01:22:40.717Z,100.00
2023-08-12T01:25:08.906Z,100.00
2023-08-12T01:27:37.872Z,100.00
2023-08-12T01:30:12.019Z,100.00
2023-08-12T01:32:42.259Z,100.00
2023-08-12T01:35:21.884Z,100.00
2023-08-12T01:37:52.295Z,100.00
2023-08-12T01:40:20.494Z,100.00
2023-08-12T01:42:48.435Z,100.00
2023-08-12T01:45:16.158Z,100.00
2023-08-12T01:47:44.672Z,100.00
2023-08-12T01:50:12.209Z,100.00
2023-08-12T01:52:40.237Z,100.00
2023-08-12T01:55:09.509Z,100.00
2023-08-12T01:57:37.023Z,100.00
2023-08-12T02:00:06.547Z,100.00
2023-08-12T02:02:47.524Z,100.00
2023-08-12T02:05:16.115Z,100.00
2023-08-12T02:07:43.658Z,100.00
2023-08-12T02:10:11.218Z,100.00
2023-08-12T02:12:38.730Z,100.00
2023-08-12T02:15:07.654Z,100.00
2023-08-12T02:17:35.325Z,100.00
2023-08-12T02:20:02.977Z,100.00
2023-08-12T02:22:31.382Z,100.00
2023-08-12T02:24:58.981Z,100.00
2023-08-12T02:27:26.536Z,100.00
2023-08-12T02:29:54.253Z,100.00
2023-08-12T02:32:21.797Z,100.00
2023-08-12T02:34:49.633Z,100.00
2023-08-12T02:37:17.257Z,100.00
2023-08-12T02:39:45.092Z,100.00
2023-08-12T02:42:12.613Z,100.00
2023-08-12T02:44:40.146Z,100.00
2023-08-12T02:47:07.791Z,100.00
2023-08-12T02:49:35.333Z,100.00
2023-08-12T02:52:02.955Z,100.00
2023-08-12T02:54:30.615Z,100.00
2023-08-12T02:56:58.094Z,100.00
2023-08-12T02:59:27.014Z,100.00
2023-08-12T03:01:54.561Z,100.00
2023-08-12T03:04:23.921Z,100.00
2023-08-12T03:06:51.485Z,100.00
2023-08-12T03:09:19.752Z,100.00
2023-08-12T03:11:47.244Z,100.00
2023-08-12T03:14:14.757Z,100.00
2023-08-12T03:16:42.365Z,100.00
2023-08-12T03:19:10.035Z,100.00
2023-08-12T03:21:37.976Z,100.00
2023-08-12T03:24:06.340Z,100.00
2023-08-12T03:26:33.921Z,100.00
2023-08-12T03:29:01.495Z,100.00
2023-08-12T03:31:29.363Z,100.00
2023-08-12T03:33:57.070Z,100.00
2023-08-12T03:36:24.697Z,100.00
2023-08-12T03:38:52.592Z,100.00
2023-08-12T03:41:23.622Z,100.00
2023-08-12T03:43:52.361Z,100.00
2023-08-12T03:46:20.151Z,100.00
2023-08-12T03:48:47.691Z,100.00
2023-08-12T03:51:15.469Z,100.00
2023-08-12T03:53:43.008Z,100.00
2023-08-12T03:56:10.706Z,100.00
2023-08-12T03:58:38.292Z,100.00
2023-08-12T04:01:06.225Z,100.00
2023-08-12T04:03:33.850Z,100.00
2023-08-12T04:06:01.380Z,100.00
2023-08-12T04:08:29.397Z,100.00
2023-08-12T04:10:57.064Z,100.00
2023-08-12T04:13:26.486Z,100.00
2023-08-12T04:15:54.652Z,100.00
2023-08-12T04:18:22.297Z,100.00
2023-08-12T04:20:51.200Z,100.00
2023-08-12T04:23:19.007Z,100.00
2023-08-12T04:25:47.840Z,100.00
2023-08-12T04:28:15.805Z,100.00
2023-08-12T04:30:44.220Z,100.00
2023-08-12T04:33:13.282Z,100.00
2023-08-12T04:35:41.622Z,100.00
2023-08-12T04:38:09.761Z,100.00
2023-08-12T04:40:41.611Z,100.00
2023-08-12T04:43:10.133Z,100.00
2023-08-12T04:45:37.781Z,100.00
2023-08-12T04:48:06.412Z,100.00
2023-08-12T04:50:36.073Z,100.00
2023-08-12T04:53:03.701Z,100.00
2023-08-12T04:55:31.372Z,100.00
2023-08-12T04:57:59.100Z,100.00
2023-08-12T05:00:29.283Z,100.00
2023-08-12T05:02:58.478Z,100.00
2023-08-12T05:05:27.976Z,100.00
2023-08-12T05:07:55.727Z,100.00
2023-08-12T05:10:23.537Z,100.00
2023-08-12T05:12:53.498Z,100.00
2023-08-12T05:15:21.556Z,100.00
2023-08-12T05:17:49.426Z,100.00
2023-08-12T05:20:19.330Z,100.00
2023-08-12T05:22:46.881Z,100.00
2023-08-12T05:25:14.447Z,100.00
2023-08-12T05:27:42.777Z,100.00
2023-08-12T05:30:10.665Z,100.00
2023-08-12T05:32:38.239Z,100.00
2023-08-12T05:35:06.316Z,100.00
2023-08-12T05:37:33.828Z,100.00
2023-08-12T05:40:01.343Z,100.00
2023-08-12T05:42:28.874Z,100.00
2023-08-12T05:44:56.377Z,100.00
2023-08-12T05:47:23.869Z,100.00
2023-08-12T05:49:51.475Z,100.00
2023-08-12T05:52:19.003Z,100.00
2023-08-12T05:54:46.519Z,100.00
2023-08-12T05:57:14.014Z,100.00
2023-08-12T05:59:41.558Z,100.00
2023-08-12T06:02:11.104Z,100.00
2023-08-12T06:04:38.960Z,100.00
2023-08-12T06:07:06.468Z,100.00
2023-08-12T06:09:33.953Z,100.00
2023-08-12T06:12:01.407Z,100.00
2023-08-12T06:14:29.289Z,100.00
2023-08-12T06:16:59.155Z,100.00
2023-08-12T06:19:26.960Z,100.00
2023-08-12T06:21:54.534Z,100.00
2023-08-12T06:24:22.032Z,100.00
2023-08-12T06:26:49.594Z,100.00
2023-08-12T06:29:17.188Z,100.00
2023-08-12T06:31:44.721Z,100.00
2023-08-12T06:34:12.342Z,100.00
2023-08-12T06:36:39.913Z,100.00
2023-08-12T06:39:07.421Z,100.00
2023-08-12T06:41:34.966Z,100.00
2023-08-12T06:44:02.546Z,100.00
2023-08-12T06:46:31.504Z,100.00
2023-08-12T06:49:00.333Z,100.00
2023-08-12T06:51:27.754Z,100.00
2023-08-12T06:53:55.327Z,100.00
2023-08-12T06:56:22.826Z,100.00
2023-08-12T06:58:50.374Z,100.00
2023-08-12T07:01:17.899Z,100.00
2023-08-12T07:03:45.533Z,100.00
2023-08-12T07:06:13.069Z,100.00
2023-08-12T07:08:40.604Z,100.00
2023-08-12T07:11:08.197Z,100.00
2023-08-12T07:13:35.727Z,100.00
2023-08-12T07:16:03.385Z,100.00
2023-08-12T07:18:31.045Z,100.00
2023-08-12T07:21:01.008Z,100.00
2023-08-12T07:23:28.637Z,100.00
2023-08-12T07:25:56.253Z,100.00
2023-08-12T07:28:23.758Z,100.00
2023-08-12T07:30:51.392Z,100.00
2023-08-12T07:33:19.068Z,100.00
2023-08-12T07:35:46.529Z,100.00
2023-08-12T07:38:13.968Z,100.00
2023-08-12T07:40:42.351Z,100.00
2023-08-12T07:43:09.963Z,100.00
2023-08-12T07:45:37.476Z,100.00
2023-08-12T07:48:05.481Z,100.00
2023-08-12T07:50:32.958Z,99.94
2023-08-12T07:53:00.473Z,99.48
2023-08-12T07:55:28.845Z,97.72
2023-08-12T07:57:56.379Z,96.24
2023-08-12T08:00:23.974Z,96.09
2023-08-12T08:02:51.487Z,93.46
2023-08-12T08:05:19.096Z,91.71
2023-08-12T08:07:46.606Z,90.08
2023-08-12T08:10:14.129Z,88.76
2023-08-12T08:12:41.669Z,88.43
2023-08-12T08:15:09.508Z,88.84
2023-08-12T08:17:39.016Z,89.65
2023-08-12T08:20:07.890Z,90.09
2023-08-12T08:22:35.446Z,90.00
2023-08-12T08:25:03.009Z,90.48
2023-08-12T08:27:30.639Z,91.63
2023-08-12T08:29:58.099Z,91.94
2023-08-12T08:32:25.518Z,91.66
2023-08-12T08:34:53.037Z,92.01
2023-08-12T08:37:20.646Z,92.30
2023-08-12T08:39:48.090Z,91.96
2023-08-12T08:42:15.722Z,91.88
2023-08-12T08:44:43.455Z,92.34
2023-08-12T08:47:10.934Z,91.85
2023-08-12T08:49:38.490Z,91.80
2023-08-12T08:52:06.082Z,91.61
2023-08-12T08:54:33.616Z,91.20
2023-08-12T08:57:06.245Z,91.86
2023-08-12T08:59:38.932Z,92.35
2023-08-12T09:02:06.718Z,92.03
2023-08-12T09:04:34.341Z,91.82
2023-08-12T09:07:01.811Z,91.75
2023-08-12T09:09:29.574Z,91.85
2023-08-12T09:11:57.079Z,91.49
2023-08-12T09:14:24.884Z,90.58
2023-08-12T09:16:52.495Z,90.03
2023-08-12T09:19:20.054Z,89.92
2023-08-12T09:21:54.179Z,88.99
2023-08-12T09:24:28.569Z,88.48
2023-08-12T09:26:58.816Z,88.21
2023-08-12T09:29:33.096Z,87.76
2023-08-12T09:32:27.099Z,87.49
2023-08-12T09:34:55.551Z,86.93
2023-08-12T09:37:24.986Z,86.85
2023-08-12T09:39:52.823Z,86.44
2023-08-12T09:42:20.345Z,85.10
2023-08-12T09:44:47.911Z,84.33
2023-08-12T09:47:15.732Z,82.58
2023-08-12T09:49:43.183Z,80.91
2023-08-12T09:52:11.066Z,79.93
2023-08-12T09:54:38.957Z,77.32
2023-08-12T09:57:07.748Z,75.90
2023-08-12T09:59:36.797Z,74.32
2023-08-12T10:02:08.672Z,73.48
2023-08-12T10:04:43.481Z,72.98
2023-08-12T10:07:11.172Z,72.70
2023-08-12T10:09:38.937Z,72.85
2023-08-12T10:12:08.122Z,72.41
2023-08-12T10:14:35.632Z,70.40
2023-08-12T10:17:05.909Z,69.30
2023-08-12T10:19:35.134Z,70.16
2023-08-12T10:22:03.899Z,70.40
2023-08-12T10:24:31.492Z,69.91
2023-08-12T10:26:58.939Z,69.98
2023-08-12T10:29:26.686Z,69.10
2023-08-12T10:31:54.112Z,68.66
2023-08-12T10:34:22.886Z,69.50
2023-08-12T10:37:02.962Z,70.26
2023-08-12T10:39:35.084Z,70.46
2023-08-12T10:42:02.817Z,69.76
2023-08-12T10:44:43.382Z,69.41
2023-08-12T10:47:11.871Z,68.51
2023-08-12T10:49:40.621Z,68.54
2023-08-12T10:52:08.130Z,68.00
2023-08-12T10:54:35.696Z,67.99
2023-08-12T10:57:06.666Z,68.13
2023-08-12T10:59:46.638Z,67.50
2023-08-12T11:02:17.543Z,67.24
2023-08-12T11:04:45.348Z,67.72
2023-08-12T11:07:20.072Z,67.77
2023-08-12T11:09:48.375Z,66.83
2023-08-12T11:12:19.813Z,66.54
2023-08-12T11:14:55.718Z,66.65
2023-08-12T11:17:31.439Z,66.76
2023-08-12T11:19:59.377Z,66.87
2023-08-12T11:22:27.111Z,66.63
2023-08-12T11:24:54.780Z,66.48
2023-08-12T11:27:23.442Z,66.64
2023-08-12T11:29:52.627Z,65.90
2023-08-12T11:32:20.540Z,64.92
2023-08-12T11:34:48.134Z,65.08
2023-08-12T11:37:15.681Z,65.94
2023-08-12T11:39:43.883Z,65.73
2023-08-12T11:42:11.777Z,64.23
2023-08-12T11:44:42.169Z,62.29
2023-08-12T11:47:09.686Z,61.50
2023-08-12T11:49:37.419Z,59.66
2023-08-12T11:52:05.113Z,59.28
2023-08-12T11:54:32.633Z,58.91
2023-08-12T11:57:00.121Z,58.34
2023-08-12T11:59:27.677Z,56.88
2023-08-12T12:01:55.910Z,56.26
2023-08-12T12:04:23.745Z,56.07
2023-08-12T12:06:51.367Z,55.72
2023-08-12T12:09:19.699Z,55.29
2023-08-12T12:11:47.291Z,55.35
2023-08-12T12:14:14.832Z,55.44
2023-08-12T12:16:44.553Z,55.90
2023-08-12T12:19:18.928Z,56.38
2023-08-12T12:21:53.383Z,56.72
2023-08-12T12:24:21.260Z,57.01
2023-08-12T12:26:48.812Z,57.17
2023-08-12T12:29:16.428Z,57.48
2023-08-12T12:31:44.058Z,57.56
2023-08-12T12:34:11.627Z,57.94
2023-08-12T12:36:39.648Z,58.11
2023-08-12T12:39:07.421Z,58.09
2023-08-12T12:41:34.973Z,58.14
2023-08-12T12:44:03.003Z,57.60
2023-08-12T12:46:31.162Z,57.40
2023-08-12T12:48:58.742Z,57.89
2023-08-12T12:54:50.572Z,58.06
2023-08-12T12:57:18.329Z,58.44
2023-08-12T12:59:45.998Z,59.10
2023-08-12T13:02:14.017Z,59.56
2023-08-12T13:04:42.044Z,60.06
2023-08-12T13:07:09.560Z,60.46
2023-08-12T13:09:37.085Z,60.60
2023-08-12T13:12:04.879Z,60.74
2023-08-12T13:14:32.447Z,60.60
2023-08-12T13:20:16.231Z,59.65
2023-08-12T13:22:43.894Z,59.61
2023-08-12T13:25:11.500Z,58.98
2023-08-12T13:30:38.837Z,58.48
2023-08-12T13:33:06.599Z,58.86
2023-08-12T13:35:34.144Z,59.34
2023-08-12T13:38:01.654Z,58.72
2023-08-12T13:40:29.206Z,57.83
2023-08-12T13:42:56.977Z,57.21
2023-08-12T13:45:24.938Z,56.94
2023-08-12T13:47:53.007Z,57.26
2023-08-12T13:50:21.427Z,57.60
2023-08-12T13:52:49.004Z,58.02
2023-08-12T13:55:16.528Z,58.57
2023-08-12T13:57:44.115Z,58.67
2023-08-12T14:00:14.299Z,58.73
2023-08-12T14:02:44.849Z,58.64
2023-08-12T14:05:12.767Z,58.60
2023-08-12T14:07:40.396Z,58.78
2023-08-12T14:10:08.586Z,59.03
2023-08-12T14:12:36.140Z,59.10
2023-08-12T14:15:03.921Z,58.05
2023-08-12T14:17:31.477Z,57.00
2023-08-12T14:20:01.828Z,56.90
2023-08-12T14:22:30.140Z,56.33
2023-08-12T14:24:57.671Z,55.94
2023-08-12T14:27:25.293Z,56.22
2023-08-12T14:29:52.908Z,56.30
2023-08-12T14:32:20.402Z,56.38
2023-08-12T14:34:48.093Z,56.83
2023-08-12T14:37:16.156Z,57.29
2023-08-12T14:39:44.064Z,57.47
2023-08-12T14:42:12.529Z,57.44
2023-08-12T14:44:40.080Z,57.26
2023-08-12T14:47:07.794Z,57.72
2023-08-12T14:49:35.412Z,57.56
2023-08-12T14:52:02.968Z,57.66
2023-08-12T14:54:30.514Z,57.43
2023-08-12T14:56:58.060Z,57.36
2023-08-12T14:59:25.561Z,55.87
2023-08-12T15:01:53.227Z,54.70
2023-08-12T15:04:20.842Z,54.15
2023-08-12T15:06:48.339Z,52.84
2023-08-12T15:09:15.968Z,52.15
2023-08-12T15:11:43.938Z,50.97
2023-08-12T15:14:11.485Z,50.55
2023-08-12T15:16:39.042Z,50.49
2023-08-12T15:19:06.604Z,50.78
2023-08-12T15:21:34.085Z,51.33
2023-08-12T15:24:01.609Z,51.74
2023-08-12T15:26:31.781Z,52.24
2023-08-12T15:29:00.248Z,52.34
2023-08-12T15:31:27.782Z,52.80
2023-08-12T15:33:55.385Z,53.16
2023-08-12T15:36:22.941Z,53.70
2023-08-12T15:38:50.489Z,53.91
2023-08-12T15:41:18.209Z,54.00
2023-08-12T15:43:45.748Z,54.23
2023-08-12T15:46:13.534Z,54.61
2023-08-12T15:48:41.209Z,55.02
2023-08-12T15:51:08.730Z,55.30
2023-08-12T15:53:36.182Z,55.66
2023-08-12T15:56:03.734Z,55.60
2023-08-12T15:58:31.643Z,54.48
2023-08-12T16:00:59.248Z,54.05
2023-08-12T16:03:27.179Z,54.24
2023-08-12T16:05:58.112Z,53.99
2023-08-12T16:08:25.639Z,53.95
2023-08-12T16:10:53.185Z,54.38
2023-08-12T16:13:20.820Z,54.72
2023-08-12T16:15:48.721Z,54.72
2023-08-12T16:18:16.596Z,54.81
2023-08-12T16:20:44.281Z,54.96
2023-08-12T16:23:12.078Z,55.23
2023-08-12T16:25:39.701Z,55.51
2023-08-12T16:28:07.330Z,55.50
2023-08-12T16:30:34.947Z,55.75
2023-08-12T16:33:02.572Z,56.01
2023-08-12T16:35:30.221Z,56.37
2023-08-12T16:37:58.420Z,56.72
2023-08-12T16:40:28.753Z,56.98
2023-08-12T16:42:56.271Z,57.22
2023-08-12T16:45:23.846Z,57.42
2023-08-12T16:47:51.453Z,57.40
2023-08-12T16:50:19.014Z,57.64
2023-08-12T16:52:46.475Z,57.81
2023-08-12T16:55:13.999Z,57.81
2023-08-12T16:57:41.457Z,58.00
2023-08-12T17:00:09.340Z,58.13
2023-08-12T17:02:36.945Z,58.20
2023-08-12T17:05:04.871Z,58.26
2023-08-12T17:07:32.500Z,58.50
2023-08-12T17:10:00.314Z,58.74
2023-08-12T17:12:27.844Z,59.08
2023-08-12T17:14:55.565Z,59.33
2023-08-12T17:17:23.344Z,59.63
2023-08-12T17:19:50.862Z,60.07
2023-08-12T17:22:19.990Z,60.37
2023-08-12T17:24:48.653Z,60.67
2023-08-12T17:27:16.154Z,60.97
2023-08-12T17:29:43.695Z,61.26
2023-08-12T17:32:11.622Z,61.68
2023-08-12T17:34:39.350Z,62.02
2023-08-12T17:37:06.860Z,62.34
2023-08-12T17:39:34.492Z,62.63
2023-08-12T17:42:02.073Z,62.96
2023-08-12T17:44:29.582Z,63.34
2023-08-12T17:46:57.189Z,63.41
2023-08-12T17:49:24.727Z,63.74
2023-08-12T17:51:52.229Z,64.04
2023-08-12T17:54:19.770Z,64.40
2023-08-12T17:56:47.297Z,64.82
2023-08-12T17:59:14.889Z,65.15
2023-08-12T18:01:42.402Z,65.32
2023-08-12T18:04:09.904Z,65.42
2023-08-12T18:06:37.337Z,65.70
2023-08-12T18:09:06.829Z,66.08
2023-08-12T18:11:36.928Z,66.40
2023-08-12T18:14:04.767Z,66.75
2023-08-12T18:16:34.753Z,67.13
2023-08-12T18:19:02.399Z,67.39
2023-08-12T18:21:29.958Z,67.70
2023-08-12T18:23:57.549Z,68.00
2023-08-12T18:26:25.148Z,68.23
2023-08-12T18:28:52.672Z,68.49
2023-08-12T18:31:20.482Z,68.64
2023-08-12T18:33:47.967Z,68.77
2023-08-12T18:36:15.409Z,68.98
2023-08-12T18:38:42.980Z,69.02
2023-08-12T18:41:10.446Z,69.11
2023-08-12T18:43:37.991Z,69.05
2023-08-12T18:46:05.691Z,69.07
2023-08-12T18:48:33.163Z,69.17
2023-08-12T18:51:00.636Z,69.23
2023-08-12T18:53:28.502Z,69.22
2023-08-12T18:55:55.977Z,68.99
2023-08-12T18:58:23.608Z,68.83
2023-08-12T19:00:51.167Z,68.73
2023-08-12T19:03:18.710Z,68.51
2023-08-12T19:05:47.399Z,68.33
2023-08-12T19:08:16.992Z,67.90
2023-08-12T19:10:45.408Z,67.57
2023-08-12T19:13:12.951Z,67.40
2023-08-12T19:15:40.569Z,67.38
2023-08-12T19:18:08.289Z,67.13
2023-08-12T19:20:35.837Z,67.16
2023-08-12T19:23:03.493Z,67.17
2023-08-12T19:25:31.562Z,66.80
2023-08-12T19:27:59.087Z,66.71
2023-08-12T19:30:26.576Z,66.45
2023-08-12T19:32:54.570Z,66.55
2023-08-12T19:35:22.171Z,66.55
2023-08-12T19:37:49.799Z,66.48
2023-08-12T19:40:17.536Z,66.46
2023-08-12T19:42:45.294Z,66.19
2023-08-12T19:45:12.802Z,65.95
2023-08-12T19:47:41.092Z,65.92
2023-08-12T19:50:10.567Z,65.85
2023-08-12T19:52:38.246Z,65.73
2023-08-12T19:55:06.633Z,65.66
2023-08-12T19:57:34.407Z,65.69
2023-08-12T20:00:02.105Z,65.71
2023-08-12T20:02:40.042Z,65.70
2023-08-12T20:05:15.482Z,65.92
2023-08-12T20:07:43.962Z,65.99
2023-08-12T20:10:11.647Z,66.14
2023-08-12T20:12:39.224Z,66.27
2023-08-12T20:15:07.191Z,66.58
2023-08-12T20:17:34.888Z,66.89
2023-08-12T20:20:04.221Z,66.92
2023-08-12T20:22:31.794Z,67.11
2023-08-12T20:24:59.310Z,67.22
2023-08-12T20:27:27.018Z,67.38
2023-08-12T20:29:54.497Z,67.52
2023-08-12T20:32:22.030Z,67.59
2023-08-12T20:34:49.579Z,67.82
2023-08-12T20:37:17.039Z,67.95
2023-08-12T20:39:44.587Z,68.17
2023-08-12T20:42:12.164Z,68.38
2023-08-12T20:44:39.661Z,68.45
2023-08-12T20:47:07.180Z,68.57
2023-08-12T20:49:34.832Z,68.56
2023-08-12T20:52:02.387Z,68.67
2023-08-12T20:54:30.014Z,68.81
2023-08-12T20:56:57.614Z,68.87
2023-08-12T20:59:25.097Z,68.83
2023-08-12T21:01:52.611Z,68.93
2023-08-12T21:04:20.274Z,68.96
2023-08-12T21:06:47.739Z,68.96
2023-08-12T21:09:15.274Z,68.90
2023-08-12T21:11:42.867Z,68.75
2023-08-12T21:14:10.343Z,68.80
2023-08-12T21:16:37.854Z,68.84
2023-08-12T21:19:05.540Z,68.82
2023-08-12T21:21:33.032Z,68.82
2023-08-12T21:24:00.558Z,68.84
2023-08-12T21:26:28.197Z,68.93
2023-08-12T21:28:55.695Z,69.07
2023-08-12T21:31:23.201Z,68.94
2023-08-12T21:33:50.806Z,68.88
2023-08-12T21:36:18.265Z,68.76
2023-08-12T21:38:45.735Z,68.68
2023-08-12T21:41:13.282Z,68.65
2023-08-12T21:43:40.786Z,68.56
2023-08-12T21:46:08.440Z,68.47
2023-08-12T21:48:36.138Z,68.57
2023-08-12T21:51:03.716Z,68.60
2023-08-12T21:53:31.288Z,68.77
2023-08-12T21:55:58.777Z,68.85
2023-08-12T21:58:26.315Z,68.98
2023-08-12T22:00:56.631Z,69.10
2023-08-12T22:03:24.245Z,69.28
2023-08-12T22:05:52.068Z,69.43
2023-08-12T22:08:20.471Z,69.53
2023-08-12T22:10:48.050Z,69.63
2023-08-12T22:13:15.532Z,69.74
2023-08-12T22:15:43.667Z,69.91
2023-08-12T22:18:11.285Z,70.04
2023-08-12T22:20:39.059Z,70.26
2023-08-12T22:23:06.795Z,70.43
2023-08-12T22:25:34.328Z,70.68
2023-08-12T22:28:01.869Z,70.95
2023-08-12T22:30:29.448Z,71.21
2023-08-12T22:32:57.061Z,71.39
2023-08-12T22:35:24.597Z,71.56
2023-08-12T22:37:52.167Z,71.75
2023-08-12T22:40:19.852Z,72.12
2023-08-12T22:42:47.309Z,72.44
2023-08-12T22:45:14.795Z,72.76
2023-08-12T22:47:42.386Z,73.07
2023-08-12T22:50:13.240Z,73.25
2023-08-12T22:52:41.381Z,73.58
2023-08-12T22:55:09.463Z,73.85
2023-08-12T22:57:36.914Z,74.14
2023-08-12T23:00:05.258Z,74.49
2023-08-12T23:02:32.867Z,74.75
2023-08-12T23:05:00.428Z,75.11
2023-08-12T23:07:27.961Z,75.42
2023-08-12T23:09:55.501Z,75.73
2023-08-12T23:12:23.058Z,75.95
2023-08-12T23:14:50.593Z,76.17
2023-08-12T23:17:18.101Z,76.52
2023-08-12T23:19:45.571Z,76.76
2023-08-12T23:22:13.419Z,77.00
2023-08-12T23:24:41.202Z,77.24
2023-08-12T23:27:08.683Z,77.33
2023-08-12T23:29:36.273Z,77.60
2023-08-12T23:32:03.892Z,77.83
2023-08-12T23:34:32.626Z,78.03
2023-08-12T23:37:00.205Z,78.32
2023-08-12T23:39:27.768Z,78.44
2023-08-12T23:41:55.314Z,78.77
2023-08-12T23:44:22.889Z,78.96
2023-08-12T23:46:50.678Z,79.23
2023-08-12T23:49:18.160Z,79.32
2023-08-12T23:51:45.802Z,79.60
2023-08-12T23:54:13.355Z,79.87
2023-08-12T23:56:40.852Z,80.07
2023-08-12T23:59:08.380Z,80.28
